sensor_id;sensor_type;location;lat;lon;timestamp;P1;durP1;ratioP1;P2;durP2;ratioP2
30948;SDS011;17637;51.984;21.208;2023-05-31T00:00:52;8.70;;;4.25;;
30948;SDS011;17637;51.984;21.208;2023-05-31T00:03:24;8.00;;;4.10;;
30948;SDS011;17637;51.984;21.208;2023-05-31T00:05:56;10.27;;;4.53;;
30948;SDS011;17637;51.984;21.208;2023-05-31T00:08:28;9.70;;;4.15;;
30948;SDS011;17637;51.984;21.208;2023-05-31T00:10:59;10.00;;;3.85;;
30948;SDS011;17637;51.984;21.208;2023-05-31T00:13:32;8.57;;;3.80;;
30948;SDS011;17637;51.984;21.208;2023-05-31T00:16:04;9.68;;;3.60;;
30948;SDS011;17637;51.984;21.208;2023-05-31T00:18:53;8.65;;;4.35;;
30948;SDS011;17637;51.984;21.208;2023-05-31T00:21:25;9.40;;;4.18;;
30948;SDS011;17637;51.984;21.208;2023-05-31T00:23:57;8.18;;;4.22;;
30948;SDS011;17637;51.984;21.208;2023-05-31T00:26:29;10.82;;;4.28;;
30948;SDS011;17637;51.984;21.208;2023-05-31T00:29:00;6.85;;;4.07;;
30948;SDS011;17637;51.984;21.208;2023-05-31T00:31:32;7.65;;;4.03;;
30948;SDS011;17637;51.984;21.208;2023-05-31T00:34:04;7.63;;;3.60;;
30948;SDS011;17637;51.984;21.208;2023-05-31T00:36:36;6.85;;;3.78;;
30948;SDS011;17637;51.984;21.208;2023-05-31T00:39:08;6.93;;;3.40;;
30948;SDS011;17637;51.984;21.208;2023-05-31T00:41:40;5.63;;;3.50;;
30948;SDS011;17637;51.984;21.208;2023-05-31T00:44:11;6.95;;;3.60;;
30948;SDS011;17637;51.984;21.208;2023-05-31T00:46:43;7.40;;;3.22;;
30948;SDS011;17637;51.984;21.208;2023-05-31T00:49:15;6.93;;;3.40;;
30948;SDS011;17637;51.984;21.208;2023-05-31T00:51:47;5.60;;;3.47;;
30948;SDS011;17637;51.984;21.208;2023-05-31T00:54:19;7.85;;;3.35;;
30948;SDS011;17637;51.984;21.208;2023-05-31T00:56:52;6.57;;;3.70;;
30948;SDS011;17637;51.984;21.208;2023-05-31T00:59:24;8.63;;;3.40;;
30948;SDS011;17637;51.984;21.208;2023-05-31T01:01:56;7.00;;;3.45;;
30948;SDS011;17637;51.984;21.208;2023-05-31T01:04:29;8.27;;;3.60;;
30948;SDS011;17637;51.984;21.208;2023-05-31T01:07:01;6.13;;;3.33;;
30948;SDS011;17637;51.984;21.208;2023-05-31T01:09:34;7.10;;;3.38;;
30948;SDS011;17637;51.984;21.208;2023-05-31T01:18:03;7.53;;;2.70;;
30948;SDS011;17637;51.984;21.208;2023-05-31T01:20:56;4.57;;;3.10;;
30948;SDS011;17637;51.984;21.208;2023-05-31T01:29:00;7.68;;;3.65;;
30948;SDS011;17637;51.984;21.208;2023-05-31T01:31:36;9.32;;;3.97;;
30948;SDS011;17637;51.984;21.208;2023-05-31T01:34:09;9.10;;;3.63;;
30948;SDS011;17637;51.984;21.208;2023-05-31T01:36:41;8.02;;;3.30;;
30948;SDS011;17637;51.984;21.208;2023-05-31T01:39:13;7.80;;;3.28;;
30948;SDS011;17637;51.984;21.208;2023-05-31T01:41:46;7.30;;;3.10;;
30948;SDS011;17637;51.984;21.208;2023-05-31T01:44:19;7.65;;;3.28;;
30948;SDS011;17637;51.984;21.208;2023-05-31T01:46:52;7.82;;;3.60;;
30948;SDS011;17637;51.984;21.208;2023-05-31T01:49:24;7.03;;;3.42;;
30948;SDS011;17637;51.984;21.208;2023-05-31T01:51:56;6.90;;;3.45;;
30948;SDS011;17637;51.984;21.208;2023-05-31T01:54:30;8.00;;;3.90;;
30948;SDS011;17637;51.984;21.208;2023-05-31T01:57:02;11.38;;;4.20;;
30948;SDS011;17637;51.984;21.208;2023-05-31T01:59:35;8.98;;;4.38;;
30948;SDS011;17637;51.984;21.208;2023-05-31T02:02:09;8.38;;;3.90;;
30948;SDS011;17637;51.984;21.208;2023-05-31T02:04:41;7.05;;;3.53;;
30948;SDS011;17637;51.984;21.208;2023-05-31T02:07:13;9.75;;;3.83;;
30948;SDS011;17637;51.984;21.208;2023-05-31T02:09:45;7.93;;;3.63;;
30948;SDS011;17637;51.984;21.208;2023-05-31T02:12:17;9.90;;;3.83;;
30948;SDS011;17637;51.984;21.208;2023-05-31T02:14:48;9.50;;;4.22;;
30948;SDS011;17637;51.984;21.208;2023-05-31T02:17:20;8.95;;;4.05;;
30948;SDS011;17637;51.984;21.208;2023-05-31T02:19:54;9.30;;;4.00;;
30948;SDS011;17637;51.984;21.208;2023-05-31T02:22:26;8.27;;;3.97;;
30948;SDS011;17637;51.984;21.208;2023-05-31T02:24:58;6.78;;;4.28;;
30948;SDS011;17637;51.984;21.208;2023-05-31T02:27:30;10.63;;;4.30;;
30948;SDS011;17637;51.984;21.208;2023-05-31T02:30:03;8.52;;;4.13;;
30948;SDS011;17637;51.984;21.208;2023-05-31T02:32:36;8.80;;;4.82;;
30948;SDS011;17637;51.984;21.208;2023-05-31T02:35:09;8.82;;;5.28;;
30948;SDS011;17637;51.984;21.208;2023-05-31T02:37:42;7.75;;;4.00;;
30948;SDS011;17637;51.984;21.208;2023-05-31T02:40:16;9.43;;;4.15;;
30948;SDS011;17637;51.984;21.208;2023-05-31T02:42:48;6.88;;;3.40;;
30948;SDS011;17637;51.984;21.208;2023-05-31T02:45:20;7.72;;;4.10;;
30948;SDS011;17637;51.984;21.208;2023-05-31T02:47:52;7.55;;;4.22;;
30948;SDS011;17637;51.984;21.208;2023-05-31T02:50:24;9.00;;;3.53;;
30948;SDS011;17637;51.984;21.208;2023-05-31T02:52:56;10.55;;;3.88;;
30948;SDS011;17637;51.984;21.208;2023-05-31T02:55:28;9.10;;;3.55;;
30948;SDS011;17637;51.984;21.208;2023-05-31T02:58:00;10.18;;;3.78;;
30948;SDS011;17637;51.984;21.208;2023-05-31T03:00:33;7.00;;;3.50;;
30948;SDS011;17637;51.984;21.208;2023-05-31T03:03:05;7.30;;;3.45;;
30948;SDS011;17637;51.984;21.208;2023-05-31T03:05:37;7.88;;;3.72;;
30948;SDS011;17637;51.984;21.208;2023-05-31T03:08:09;12.57;;;4.05;;
30948;SDS011;17637;51.984;21.208;2023-05-31T03:10:41;10.05;;;3.40;;
30948;SDS011;17637;51.984;21.208;2023-05-31T03:13:13;9.77;;;3.50;;
30948;SDS011;17637;51.984;21.208;2023-05-31T03:15:44;5.00;;;3.10;;
30948;SDS011;17637;51.984;21.208;2023-05-31T03:18:16;10.80;;;3.60;;
30948;SDS011;17637;51.984;21.208;2023-05-31T03:20:48;6.18;;;3.35;;
30948;SDS011;17637;51.984;21.208;2023-05-31T03:23:20;9.90;;;3.45;;
30948;SDS011;17637;51.984;21.208;2023-05-31T03:25:52;5.85;;;3.10;;
30948;SDS011;17637;51.984;21.208;2023-05-31T03:28:24;8.93;;;3.45;;
30948;SDS011;17637;51.984;21.208;2023-05-31T03:30:56;7.28;;;3.10;;
30948;SDS011;17637;51.984;21.208;2023-05-31T03:33:27;7.50;;;3.47;;
30948;SDS011;17637;51.984;21.208;2023-05-31T03:35:59;5.32;;;2.95;;
30948;SDS011;17637;51.984;21.208;2023-05-31T03:38:31;8.23;;;3.17;;
30948;SDS011;17637;51.984;21.208;2023-05-31T03:41:03;5.43;;;2.92;;
30948;SDS011;17637;51.984;21.208;2023-05-31T03:43:35;7.93;;;3.25;;
30948;SDS011;17637;51.984;21.208;2023-05-31T03:46:07;7.63;;;3.30;;
30948;SDS011;17637;51.984;21.208;2023-05-31T03:48:39;6.80;;;3.30;;
30948;SDS011;17637;51.984;21.208;2023-05-31T03:51:10;4.72;;;2.92;;
30948;SDS011;17637;51.984;21.208;2023-05-31T03:53:42;6.47;;;3.00;;
30948;SDS011;17637;51.984;21.208;2023-05-31T03:56:14;5.32;;;2.83;;
30948;SDS011;17637;51.984;21.208;2023-05-31T03:58:46;5.80;;;2.88;;
30948;SDS011;17637;51.984;21.208;2023-05-31T04:01:18;10.27;;;3.08;;
30948;SDS011;17637;51.984;21.208;2023-05-31T04:03:50;5.22;;;3.00;;
30948;SDS011;17637;51.984;21.208;2023-05-31T04:06:22;7.32;;;3.28;;
30948;SDS011;17637;51.984;21.208;2023-05-31T04:08:54;7.05;;;3.05;;
30948;SDS011;17637;51.984;21.208;2023-05-31T04:11:26;6.25;;;2.58;;
30948;SDS011;17637;51.984;21.208;2023-05-31T04:13:57;5.32;;;2.85;;
30948;SDS011;17637;51.984;21.208;2023-05-31T04:16:30;7.75;;;3.03;;
30948;SDS011;17637;51.984;21.208;2023-05-31T04:19:02;6.57;;;2.83;;
30948;SDS011;17637;51.984;21.208;2023-05-31T04:21:34;5.72;;;2.65;;
30948;SDS011;17637;51.984;21.208;2023-05-31T04:24:06;6.07;;;2.83;;
30948;SDS011;17637;51.984;21.208;2023-05-31T04:26:38;8.50;;;2.72;;
30948;SDS011;17637;51.984;21.208;2023-05-31T04:29:10;7.35;;;2.67;;
30948;SDS011;17637;51.984;21.208;2023-05-31T04:31:42;5.43;;;2.58;;
30948;SDS011;17637;51.984;21.208;2023-05-31T04:34:19;4.75;;;2.60;;
30948;SDS011;17637;51.984;21.208;2023-05-31T04:36:52;7.43;;;2.92;;
30948;SDS011;17637;51.984;21.208;2023-05-31T04:39:24;10.90;;;3.00;;
30948;SDS011;17637;51.984;21.208;2023-05-31T04:41:56;8.32;;;2.67;;
30948;SDS011;17637;51.984;21.208;2023-05-31T04:44:28;8.68;;;2.53;;
30948;SDS011;17637;51.984;21.208;2023-05-31T04:46:59;6.55;;;2.72;;
30948;SDS011;17637;51.984;21.208;2023-05-31T04:49:31;9.23;;;2.50;;
30948;SDS011;17637;51.984;21.208;2023-05-31T04:52:24;5.03;;;2.10;;
30948;SDS011;17637;51.984;21.208;2023-05-31T04:55:00;9.60;;;2.80;;
30948;SDS011;17637;51.984;21.208;2023-05-31T04:57:32;8.00;;;2.83;;
30948;SDS011;17637;51.984;21.208;2023-05-31T05:00:04;10.52;;;2.88;;
30948;SDS011;17637;51.984;21.208;2023-05-31T05:02:41;6.53;;;2.35;;
30948;SDS011;17637;51.984;21.208;2023-05-31T05:05:14;4.10;;;2.10;;
30948;SDS011;17637;51.984;21.208;2023-05-31T05:07:47;5.60;;;2.10;;
30948;SDS011;17637;51.984;21.208;2023-05-31T05:10:19;5.68;;;2.25;;
30948;SDS011;17637;51.984;21.208;2023-05-31T05:12:51;5.70;;;2.10;;
30948;SDS011;17637;51.984;21.208;2023-05-31T05:15:23;8.88;;;2.10;;
30948;SDS011;17637;51.984;21.208;2023-05-31T05:17:55;3.85;;;2.22;;
30948;SDS011;17637;51.984;21.208;2023-05-31T05:20:27;6.10;;;2.20;;
30948;SDS011;17637;51.984;21.208;2023-05-31T05:22:59;4.60;;;2.22;;
30948;SDS011;17637;51.984;21.208;2023-05-31T05:25:38;6.55;;;2.22;;
30948;SDS011;17637;51.984;21.208;2023-05-31T05:28:10;5.57;;;2.30;;
30948;SDS011;17637;51.984;21.208;2023-05-31T05:30:42;4.57;;;2.00;;
30948;SDS011;17637;51.984;21.208;2023-05-31T05:33:15;5.65;;;2.45;;
30948;SDS011;17637;51.984;21.208;2023-05-31T05:35:47;4.53;;;1.95;;
30948;SDS011;17637;51.984;21.208;2023-05-31T05:38:19;4.95;;;2.13;;
30948;SDS011;17637;51.984;21.208;2023-05-31T05:40:52;5.05;;;2.17;;
30948;SDS011;17637;51.984;21.208;2023-05-31T05:43:24;5.03;;;1.90;;
30948;SDS011;17637;51.984;21.208;2023-05-31T05:45:56;5.05;;;1.92;;
30948;SDS011;17637;51.984;21.208;2023-05-31T05:48:28;4.38;;;1.90;;
30948;SDS011;17637;51.984;21.208;2023-05-31T05:51:00;3.78;;;2.00;;
30948;SDS011;17637;51.984;21.208;2023-05-31T05:53:32;4.32;;;2.08;;
30948;SDS011;17637;51.984;21.208;2023-05-31T05:56:04;3.38;;;1.90;;
30948;SDS011;17637;51.984;21.208;2023-05-31T05:58:36;7.60;;;2.22;;
30948;SDS011;17637;51.984;21.208;2023-05-31T06:01:08;5.75;;;1.85;;
30948;SDS011;17637;51.984;21.208;2023-05-31T06:03:40;6.10;;;1.90;;
30948;SDS011;17637;51.984;21.208;2023-05-31T06:06:13;6.60;;;2.42;;
30948;SDS011;17637;51.984;21.208;2023-05-31T06:08:45;6.00;;;1.92;;
30948;SDS011;17637;51.984;21.208;2023-05-31T06:11:18;5.10;;;2.20;;
30948;SDS011;17637;51.984;21.208;2023-05-31T06:13:50;4.20;;;1.90;;
30948;SDS011;17637;51.984;21.208;2023-05-31T06:16:27;5.50;;;1.92;;
30948;SDS011;17637;51.984;21.208;2023-05-31T06:18:59;7.63;;;2.33;;
30948;SDS011;17637;51.984;21.208;2023-05-31T06:21:31;5.07;;;1.67;;
30948;SDS011;17637;51.984;21.208;2023-05-31T06:24:03;5.75;;;2.17;;
30948;SDS011;17637;51.984;21.208;2023-05-31T06:26:35;4.55;;;1.55;;
30948;SDS011;17637;51.984;21.208;2023-05-31T06:29:07;5.25;;;1.55;;
30948;SDS011;17637;51.984;21.208;2023-05-31T06:31:39;4.28;;;1.77;;
30948;SDS011;17637;51.984;21.208;2023-05-31T06:34:11;7.72;;;1.70;;
30948;SDS011;17637;51.984;21.208;2023-05-31T06:36:43;2.42;;;1.27;;
30948;SDS011;17637;51.984;21.208;2023-05-31T06:39:15;4.38;;;1.70;;
30948;SDS011;17637;51.984;21.208;2023-05-31T06:41:47;4.05;;;1.33;;
30948;SDS011;17637;51.984;21.208;2023-05-31T06:44:19;4.38;;;1.73;;
30948;SDS011;17637;51.984;21.208;2023-05-31T06:46:51;4.43;;;1.60;;
30948;SDS011;17637;51.984;21.208;2023-05-31T06:49:22;3.25;;;1.38;;
30948;SDS011;17637;51.984;21.208;2023-05-31T06:51:55;2.53;;;1.27;;
30948;SDS011;17637;51.984;21.208;2023-05-31T06:54:28;2.90;;;1.60;;
30948;SDS011;17637;51.984;21.208;2023-05-31T06:57:00;5.72;;;1.50;;
30948;SDS011;17637;51.984;21.208;2023-05-31T06:59:33;8.75;;;1.88;;
30948;SDS011;17637;51.984;21.208;2023-05-31T07:02:05;4.78;;;1.48;;
30948;SDS011;17637;51.984;21.208;2023-05-31T07:04:37;8.40;;;1.75;;
30948;SDS011;17637;51.984;21.208;2023-05-31T07:07:09;4.38;;;1.30;;
30948;SDS011;17637;51.984;21.208;2023-05-31T07:09:42;4.57;;;1.50;;
30948;SDS011;17637;51.984;21.208;2023-05-31T07:12:14;4.18;;;1.50;;
30948;SDS011;17637;51.984;21.208;2023-05-31T07:14:46;2.80;;;1.30;;
30948;SDS011;17637;51.984;21.208;2023-05-31T07:17:17;3.42;;;1.75;;
30948;SDS011;17637;51.984;21.208;2023-05-31T07:19:49;6.00;;;2.00;;
30948;SDS011;17637;51.984;21.208;2023-05-31T07:22:21;4.35;;;1.45;;
30948;SDS011;17637;51.984;21.208;2023-05-31T07:24:53;5.05;;;1.60;;
30948;SDS011;17637;51.984;21.208;2023-05-31T07:27:25;6.10;;;1.40;;
30948;SDS011;17637;51.984;21.208;2023-05-31T07:29:57;5.72;;;1.52;;
30948;SDS011;17637;51.984;21.208;2023-05-31T07:32:29;5.53;;;1.50;;
30948;SDS011;17637;51.984;21.208;2023-05-31T07:35:01;4.63;;;1.60;;
30948;SDS011;17637;51.984;21.208;2023-05-31T07:37:35;5.57;;;1.63;;
30948;SDS011;17637;51.984;21.208;2023-05-31T07:40:07;3.30;;;1.20;;
30948;SDS011;17637;51.984;21.208;2023-05-31T07:42:39;3.30;;;1.40;;
30948;SDS011;17637;51.984;21.208;2023-05-31T07:45:11;10.30;;;1.88;;
30948;SDS011;17637;51.984;21.208;2023-05-31T07:47:43;8.43;;;1.58;;
30948;SDS011;17637;51.984;21.208;2023-05-31T07:50:15;3.58;;;1.40;;
30948;SDS011;17637;51.984;21.208;2023-05-31T07:52:47;4.63;;;1.38;;
30948;SDS011;17637;51.984;21.208;2023-05-31T07:55:20;5.72;;;1.60;;
30948;SDS011;17637;51.984;21.208;2023-05-31T07:57:52;4.07;;;1.70;;
30948;SDS011;17637;51.984;21.208;2023-05-31T08:00:24;5.40;;;1.70;;
30948;SDS011;17637;51.984;21.208;2023-05-31T08:02:59;7.03;;;2.00;;
30948;SDS011;17637;51.984;21.208;2023-05-31T08:05:31;5.18;;;1.52;;
30948;SDS011;17637;51.984;21.208;2023-05-31T08:08:04;3.70;;;1.10;;
30948;SDS011;17637;51.984;21.208;2023-05-31T08:10:37;5.50;;;1.50;;
30948;SDS011;17637;51.984;21.208;2023-05-31T08:13:09;2.95;;;1.35;;
30948;SDS011;17637;51.984;21.208;2023-05-31T08:15:41;6.57;;;1.60;;
30948;SDS011;17637;51.984;21.208;2023-05-31T08:18:13;6.47;;;1.52;;
30948;SDS011;17637;51.984;21.208;2023-05-31T08:20:45;7.65;;;1.63;;
30948;SDS011;17637;51.984;21.208;2023-05-31T08:23:18;4.93;;;1.77;;
30948;SDS011;17637;51.984;21.208;2023-05-31T08:25:50;6.28;;;1.50;;
30948;SDS011;17637;51.984;21.208;2023-05-31T08:28:24;6.25;;;1.73;;
30948;SDS011;17637;51.984;21.208;2023-05-31T08:30:56;7.78;;;1.60;;
30948;SDS011;17637;51.984;21.208;2023-05-31T08:33:28;5.38;;;1.67;;
30948;SDS011;17637;51.984;21.208;2023-05-31T08:36:00;4.43;;;1.70;;
30948;SDS011;17637;51.984;21.208;2023-05-31T08:38:35;6.45;;;1.45;;
30948;SDS011;17637;51.984;21.208;2023-05-31T08:41:08;3.85;;;1.60;;
30948;SDS011;17637;51.984;21.208;2023-05-31T08:43:40;5.15;;;1.20;;
30948;SDS011;17637;51.984;21.208;2023-05-31T08:46:13;2.75;;;1.23;;
30948;SDS011;17637;51.984;21.208;2023-05-31T08:48:51;4.10;;;1.10;;
30948;SDS011;17637;51.984;21.208;2023-05-31T08:51:25;6.13;;;1.27;;
30948;SDS011;17637;51.984;21.208;2023-05-31T08:53:57;2.47;;;1.42;;
30948;SDS011;17637;51.984;21.208;2023-05-31T08:56:30;2.92;;;1.10;;
30948;SDS011;17637;51.984;21.208;2023-05-31T08:59:02;4.03;;;1.40;;
30948;SDS011;17637;51.984;21.208;2023-05-31T09:01:40;6.75;;;1.38;;
30948;SDS011;17637;51.984;21.208;2023-05-31T09:04:13;2.47;;;1.20;;
30948;SDS011;17637;51.984;21.208;2023-05-31T09:06:45;4.38;;;1.50;;
30948;SDS011;17637;51.984;21.208;2023-05-31T09:09:17;2.60;;;1.33;;
30948;SDS011;17637;51.984;21.208;2023-05-31T09:11:50;5.13;;;1.60;;
30948;SDS011;17637;51.984;21.208;2023-05-31T09:14:25;4.55;;;1.17;;
30948;SDS011;17637;51.984;21.208;2023-05-31T09:16:57;5.55;;;1.23;;
30948;SDS011;17637;51.984;21.208;2023-05-31T09:19:30;3.42;;;0.98;;
30948;SDS011;17637;51.984;21.208;2023-05-31T09:22:01;2.03;;;1.27;;
30948;SDS011;17637;51.984;21.208;2023-05-31T09:24:35;4.10;;;1.35;;
30948;SDS011;17637;51.984;21.208;2023-05-31T09:27:07;2.53;;;0.95;;
30948;SDS011;17637;51.984;21.208;2023-05-31T09:29:41;2.53;;;1.00;;
30948;SDS011;17637;51.984;21.208;2023-05-31T09:32:14;2.28;;;1.20;;
30948;SDS011;17637;51.984;21.208;2023-05-31T09:34:46;3.50;;;1.15;;
30948;SDS011;17637;51.984;21.208;2023-05-31T09:37:21;3.55;;;1.13;;
30948;SDS011;17637;51.984;21.208;2023-05-31T09:39:57;4.43;;;1.20;;
30948;SDS011;17637;51.984;21.208;2023-05-31T09:42:29;2.20;;;1.10;;
30948;SDS011;17637;51.984;21.208;2023-05-31T09:45:01;4.35;;;1.45;;
30948;SDS011;17637;51.984;21.208;2023-05-31T09:47:36;3.50;;;1.13;;
30948;SDS011;17637;51.984;21.208;2023-05-31T09:50:19;3.80;;;1.30;;
30948;SDS011;17637;51.984;21.208;2023-05-31T09:52:55;2.63;;;1.30;;
30948;SDS011;17637;51.984;21.208;2023-05-31T09:55:38;4.15;;;1.73;;
30948;SDS011;17637;51.984;21.208;2023-05-31T09:58:11;2.67;;;1.00;;
30948;SDS011;17637;51.984;21.208;2023-05-31T10:01:02;3.23;;;1.20;;
30948;SDS011;17637;51.984;21.208;2023-05-31T10:03:35;3.85;;;1.35;;
30948;SDS011;17637;51.984;21.208;2023-05-31T10:06:08;2.63;;;1.13;;
30948;SDS011;17637;51.984;21.208;2023-05-31T10:08:40;3.50;;;1.20;;
30948;SDS011;17637;51.984;21.208;2023-05-31T10:11:18;3.17;;;1.58;;
30948;SDS011;17637;51.984;21.208;2023-05-31T10:13:56;2.37;;;1.33;;
30948;SDS011;17637;51.984;21.208;2023-05-31T10:16:32;6.43;;;1.60;;
30948;SDS011;17637;51.984;21.208;2023-05-31T10:19:09;7.82;;;1.40;;
30948;SDS011;17637;51.984;21.208;2023-05-31T10:21:44;4.70;;;1.48;;
30948;SDS011;17637;51.984;21.208;2023-05-31T10:24:18;5.05;;;1.60;;
30948;SDS011;17637;51.984;21.208;2023-05-31T10:29:43;4.00;;;1.35;;
30948;SDS011;17637;51.984;21.208;2023-05-31T10:32:27;4.50;;;1.40;;
30948;SDS011;17637;51.984;21.208;2023-05-31T10:35:04;3.05;;;1.38;;
30948;SDS011;17637;51.984;21.208;2023-05-31T10:37:38;3.60;;;1.42;;
30948;SDS011;17637;51.984;21.208;2023-05-31T10:40:15;3.17;;;1.27;;
30948;SDS011;17637;51.984;21.208;2023-05-31T10:42:59;1.98;;;1.30;;
30948;SDS011;17637;51.984;21.208;2023-05-31T10:45:39;3.03;;;1.08;;
30948;SDS011;17637;51.984;21.208;2023-05-31T10:51:04;5.57;;;1.23;;
30948;SDS011;17637;51.984;21.208;2023-05-31T10:53:38;5.80;;;1.15;;
30948;SDS011;17637;51.984;21.208;2023-05-31T10:56:11;7.05;;;1.25;;
30948;SDS011;17637;51.984;21.208;2023-05-31T10:58:48;1.50;;;1.00;;
30948;SDS011;17637;51.984;21.208;2023-05-31T11:01:23;3.15;;;1.20;;
30948;SDS011;17637;51.984;21.208;2023-05-31T11:04:00;1.85;;;1.08;;
30948;SDS011;17637;51.984;21.208;2023-05-31T11:06:32;5.72;;;1.25;;
30948;SDS011;17637;51.984;21.208;2023-05-31T11:09:14;2.22;;;1.02;;
30948;SDS011;17637;51.984;21.208;2023-05-31T11:11:50;7.28;;;1.33;;
30948;SDS011;17637;51.984;21.208;2023-05-31T11:19:36;2.10;;;1.10;;
30948;SDS011;17637;51.984;21.208;2023-05-31T11:22:15;1.60;;;0.98;;
30948;SDS011;17637;51.984;21.208;2023-05-31T11:24:48;2.08;;;1.23;;
30948;SDS011;17637;51.984;21.208;2023-05-31T11:27:37;3.28;;;1.20;;
30948;SDS011;17637;51.984;21.208;2023-05-31T11:30:12;3.25;;;1.17;;
30948;SDS011;17637;51.984;21.208;2023-05-31T11:35:23;2.60;;;1.23;;
30948;SDS011;17637;51.984;21.208;2023-05-31T11:38:02;3.42;;;1.20;;
30948;SDS011;17637;51.984;21.208;2023-05-31T11:40:34;2.83;;;1.25;;
30948;SDS011;17637;51.984;21.208;2023-05-31T11:43:08;4.85;;;1.30;;
30948;SDS011;17637;51.984;21.208;2023-05-31T11:45:42;5.63;;;1.38;;
30948;SDS011;17637;51.984;21.208;2023-05-31T11:48:22;2.60;;;1.17;;
30948;SDS011;17637;51.984;21.208;2023-05-31T11:51:17;3.38;;;1.05;;
30948;SDS011;17637;51.984;21.208;2023-05-31T11:53:49;3.42;;;1.52;;
30948;SDS011;17637;51.984;21.208;2023-05-31T11:56:28;1.95;;;1.40;;
30948;SDS011;17637;51.984;21.208;2023-05-31T11:59:07;1.13;;;1.00;;
30948;SDS011;17637;51.984;21.208;2023-05-31T12:01:39;2.67;;;1.40;;
30948;SDS011;17637;51.984;21.208;2023-05-31T12:04:11;3.95;;;1.38;;
30948;SDS011;17637;51.984;21.208;2023-05-31T12:06:43;2.25;;;1.13;;
30948;SDS011;17637;51.984;21.208;2023-05-31T12:09:15;2.15;;;1.25;;
30948;SDS011;17637;51.984;21.208;2023-05-31T12:11:47;4.63;;;1.10;;
30948;SDS011;17637;51.984;21.208;2023-05-31T12:14:19;2.67;;;1.25;;
30948;SDS011;17637;51.984;21.208;2023-05-31T12:16:51;5.30;;;1.40;;
30948;SDS011;17637;51.984;21.208;2023-05-31T12:19:24;4.28;;;1.30;;
30948;SDS011;17637;51.984;21.208;2023-05-31T12:21:56;2.63;;;1.48;;
30948;SDS011;17637;51.984;21.208;2023-05-31T12:24:27;4.55;;;1.42;;
30948;SDS011;17637;51.984;21.208;2023-05-31T12:27:00;5.45;;;1.60;;
30948;SDS011;17637;51.984;21.208;2023-05-31T12:29:33;2.25;;;1.30;;
30948;SDS011;17637;51.984;21.208;2023-05-31T12:32:05;3.78;;;1.38;;
30948;SDS011;17637;51.984;21.208;2023-05-31T12:34:38;1.17;;;1.02;;
30948;SDS011;17637;51.984;21.208;2023-05-31T12:37:10;3.92;;;1.50;;
30948;SDS011;17637;51.984;21.208;2023-05-31T12:39:45;4.68;;;1.30;;
30948;SDS011;17637;51.984;21.208;2023-05-31T12:42:17;5.95;;;1.60;;
30948;SDS011;17637;51.984;21.208;2023-05-31T12:44:49;5.57;;;1.67;;
30948;SDS011;17637;51.984;21.208;2023-05-31T12:47:20;4.10;;;1.40;;
30948;SDS011;17637;51.984;21.208;2023-05-31T12:49:59;2.28;;;1.20;;
30948;SDS011;17637;51.984;21.208;2023-05-31T12:52:33;3.33;;;1.40;;
30948;SDS011;17637;51.984;21.208;2023-05-31T12:55:07;5.63;;;1.40;;
30948;SDS011;17637;51.984;21.208;2023-05-31T12:57:39;1.55;;;1.33;;
30948;SDS011;17637;51.984;21.208;2023-05-31T13:00:12;2.97;;;1.15;;
30948;SDS011;17637;51.984;21.208;2023-05-31T13:02:44;2.95;;;1.40;;
30948;SDS011;17637;51.984;21.208;2023-05-31T13:05:16;3.35;;;1.27;;
30948;SDS011;17637;51.984;21.208;2023-05-31T13:07:48;1.63;;;1.30;;
30948;SDS011;17637;51.984;21.208;2023-05-31T13:10:21;2.15;;;1.40;;
30948;SDS011;17637;51.984;21.208;2023-05-31T13:12:53;1.65;;;1.25;;
30948;SDS011;17637;51.984;21.208;2023-05-31T13:15:25;2.30;;;1.30;;
30948;SDS011;17637;51.984;21.208;2023-05-31T13:17:57;2.92;;;1.42;;
30948;SDS011;17637;51.984;21.208;2023-05-31T13:20:29;3.60;;;1.60;;
30948;SDS011;17637;51.984;21.208;2023-05-31T13:23:01;5.90;;;1.55;;
30948;SDS011;17637;51.984;21.208;2023-05-31T13:25:32;1.92;;;1.48;;
30948;SDS011;17637;51.984;21.208;2023-05-31T13:28:04;4.90;;;1.50;;
30948;SDS011;17637;51.984;21.208;2023-05-31T13:30:36;5.43;;;1.42;;
30948;SDS011;17637;51.984;21.208;2023-05-31T13:33:08;2.08;;;1.17;;
30948;SDS011;17637;51.984;21.208;2023-05-31T13:35:40;4.57;;;1.60;;
30948;SDS011;17637;51.984;21.208;2023-05-31T13:38:12;4.15;;;1.70;;
30948;SDS011;17637;51.984;21.208;2023-05-31T13:40:45;4.97;;;1.70;;
30948;SDS011;17637;51.984;21.208;2023-05-31T13:43:18;2.75;;;1.23;;
30948;SDS011;17637;51.984;21.208;2023-05-31T13:45:50;3.15;;;1.38;;
30948;SDS011;17637;51.984;21.208;2023-05-31T13:48:23;3.97;;;1.50;;
30948;SDS011;17637;51.984;21.208;2023-05-31T13:50:54;5.00;;;1.70;;
30948;SDS011;17637;51.984;21.208;2023-05-31T13:53:27;4.60;;;1.30;;
30948;SDS011;17637;51.984;21.208;2023-05-31T13:55:59;2.90;;;1.40;;
30948;SDS011;17637;51.984;21.208;2023-05-31T13:58:34;4.40;;;1.60;;
30948;SDS011;17637;51.984;21.208;2023-05-31T14:01:07;3.63;;;1.55;;
30948;SDS011;17637;51.984;21.208;2023-05-31T14:03:39;5.78;;;1.58;;
30948;SDS011;17637;51.984;21.208;2023-05-31T14:06:12;4.63;;;1.90;;
30948;SDS011;17637;51.984;21.208;2023-05-31T14:08:44;3.15;;;1.40;;
30948;SDS011;17637;51.984;21.208;2023-05-31T14:11:17;2.17;;;1.50;;
30948;SDS011;17637;51.984;21.208;2023-05-31T14:13:49;5.45;;;1.52;;
30948;SDS011;17637;51.984;21.208;2023-05-31T14:16:22;4.30;;;1.63;;
30948;SDS011;17637;51.984;21.208;2023-05-31T14:18:54;4.38;;;1.63;;
30948;SDS011;17637;51.984;21.208;2023-05-31T14:21:26;3.10;;;1.50;;
30948;SDS011;17637;51.984;21.208;2023-05-31T14:23:58;3.85;;;1.70;;
30948;SDS011;17637;51.984;21.208;2023-05-31T14:26:30;6.72;;;1.58;;
30948;SDS011;17637;51.984;21.208;2023-05-31T14:29:02;2.63;;;1.35;;
30948;SDS011;17637;51.984;21.208;2023-05-31T14:31:34;1.77;;;1.30;;
30948;SDS011;17637;51.984;21.208;2023-05-31T14:34:08;2.13;;;1.17;;
30948;SDS011;17637;51.984;21.208;2023-05-31T14:36:41;2.53;;;1.40;;
30948;SDS011;17637;51.984;21.208;2023-05-31T14:39:14;2.97;;;1.20;;
30948;SDS011;17637;51.984;21.208;2023-05-31T14:41:46;3.33;;;1.30;;
30948;SDS011;17637;51.984;21.208;2023-05-31T14:44:18;4.00;;;1.88;;
30948;SDS011;17637;51.984;21.208;2023-05-31T14:46:50;4.50;;;1.65;;
30948;SDS011;17637;51.984;21.208;2023-05-31T14:49:26;4.75;;;1.52;;
30948;SDS011;17637;51.984;21.208;2023-05-31T14:51:58;4.80;;;1.25;;
30948;SDS011;17637;51.984;21.208;2023-05-31T14:54:30;4.45;;;1.60;;
30948;SDS011;17637;51.984;21.208;2023-05-31T14:57:01;3.08;;;1.40;;
30948;SDS011;17637;51.984;21.208;2023-05-31T14:59:34;3.42;;;1.40;;
30948;SDS011;17637;51.984;21.208;2023-05-31T15:02:05;4.38;;;1.27;;
30948;SDS011;17637;51.984;21.208;2023-05-31T15:04:38;6.85;;;1.88;;
30948;SDS011;17637;51.984;21.208;2023-05-31T15:07:11;3.80;;;1.75;;
30948;SDS011;17637;51.984;21.208;2023-05-31T15:09:43;2.22;;;1.33;;
30948;SDS011;17637;51.984;21.208;2023-05-31T15:12:15;4.90;;;1.52;;
30948;SDS011;17637;51.984;21.208;2023-05-31T15:14:47;3.33;;;1.63;;
30948;SDS011;17637;51.984;21.208;2023-05-31T15:17:19;3.33;;;1.70;;
30948;SDS011;17637;51.984;21.208;2023-05-31T15:19:51;4.60;;;1.50;;
30948;SDS011;17637;51.984;21.208;2023-05-31T15:22:23;4.88;;;1.77;;
30948;SDS011;17637;51.984;21.208;2023-05-31T15:24:55;3.95;;;1.85;;
30948;SDS011;17637;51.984;21.208;2023-05-31T15:27:27;4.60;;;1.52;;
30948;SDS011;17637;51.984;21.208;2023-05-31T15:29:58;4.40;;;1.63;;
30948;SDS011;17637;51.984;21.208;2023-05-31T15:32:30;4.50;;;1.42;;